createdAt,value
2023-04-04T00:00:22.998Z,101380.94
2023-04-04T00:01:54.946Z,101372.09
2023-04-04T00:03:27.772Z,101369.44
2023-04-04T00:04:59.650Z,101372.16
2023-04-04T00:06:31.550Z,101378.34
2023-04-04T00:08:04.005Z,101376.63
2023-04-04T00:09:36.198Z,101378.41
2023-04-04T00:11:08.050Z,101376.63
2023-04-04T00:12:39.882Z,101383.78
2023-04-04T00:14:11.840Z,101381.16
2023-04-04T00:15:43.636Z,101383.81
2023-04-04T00:17:15.438Z,101380.38
2023-04-04T00:18:47.225Z,101383.94
2023-04-04T00:20:19.045Z,101377.78
2023-04-04T00:21:51.216Z,101376.09
2023-04-04T00:23:23.042Z,101374.34
2023-04-04T00:24:54.943Z,101373.53
2023-04-04T00:26:26.938Z,101374.47
2023-04-04T00:28:01.302Z,101375.41
2023-04-04T00:29:34.670Z,101375.44
2023-04-04T00:31:07.770Z,101373.72
2023-04-04T00:32:39.894Z,101367.56
2023-04-04T00:34:11.877Z,101368.47
2023-04-04T00:35:43.705Z,101364.97
2023-04-04T00:37:15.894Z,101371.19
2023-04-04T00:38:47.760Z,101364.19
2023-04-04T00:40:19.856Z,101365.09
2023-04-04T00:41:51.786Z,101362.44
2023-04-04T00:43:23.737Z,101366.03
2023-04-04T00:44:55.998Z,101363.44
2023-04-04T00:46:29.542Z,101365.19
2023-04-04T00:48:03.503Z,101358.16
2023-04-04T00:49:35.802Z,101358.19
2023-04-04T00:51:07.856Z,101362.59
2023-04-04T00:52:39.764Z,101359.09
2023-04-04T00:54:11.820Z,101364.41
2023-04-04T00:55:44.063Z,101366.19
2023-04-04T00:57:16.931Z,101357.34
2023-04-04T00:58:48.874Z,101361.78
2023-04-04T01:00:21.146Z,101362.69
2023-04-04T01:01:52.996Z,101360.03
2023-04-04T01:03:25.160Z,101358.28
2023-04-04T01:04:57.026Z,101357.38
2023-04-04T01:06:30.703Z,101352.06
2023-04-04T01:08:02.756Z,101359.13
2023-04-04T01:09:35.223Z,101349.38
2023-04-04T01:11:07.492Z,101347.59
2023-04-04T01:12:39.871Z,101348.53
2023-04-04T01:14:11.899Z,101355.56
2023-04-04T01:15:45.169Z,101350.25
2023-04-04T01:17:17.327Z,101355.56
2023-04-04T01:18:51.151Z,101350.25
2023-04-04T01:20:26.984Z,101345.81
2023-04-04T01:22:02.886Z,101344.94
2023-04-04T01:24:11.556Z,101341.50
2023-04-04T01:25:49.229Z,101344.94
2023-04-04T01:27:21.779Z,101345.88
2023-04-04T01:29:00.829Z,101341.44
2023-04-04T01:30:36.007Z,101343.28
2023-04-04T01:32:20.484Z,101337.13
2023-04-04T01:34:05.197Z,101345.09
2023-04-04T01:35:44.220Z,101343.34
2023-04-04T01:37:28.264Z,101337.19
2023-04-04T01:39:25.014Z,101336.47
2023-04-04T01:41:02.892Z,101343.50
2023-04-04T01:42:38.982Z,101342.66
2023-04-04T01:44:11.720Z,101338.31
2023-04-04T01:45:43.834Z,101341.00
2023-04-04T01:47:18.040Z,101333.97
2023-04-04T01:48:49.878Z,101338.47
2023-04-04T01:50:26.787Z,101339.41
2023-04-04T01:51:58.809Z,101333.31
2023-04-04T01:53:31.513Z,101331.63
2023-04-04T01:55:03.963Z,101333.44
2023-04-04T01:56:36.180Z,101338.88
2023-04-04T01:58:08.604Z,101329.25
2023-04-04T01:59:40.607Z,101327.56
2023-04-04T02:01:12.979Z,101322.34
2023-04-04T02:02:44.958Z,101332.16
2023-04-04T02:04:17.374Z,101323.41
2023-04-04T02:05:49.613Z,101323.47
2023-04-04T02:07:21.476Z,101323.56
2023-04-04T02:08:53.959Z,101325.38
2023-04-04T02:10:26.040Z,101317.56
2023-04-04T02:11:57.874Z,101315.84
2023-04-04T02:13:29.718Z,101315.94
2023-04-04T02:15:03.840Z,101319.56
2023-04-04T02:16:35.721Z,101317.88
2023-04-04T02:18:07.586Z,101314.41
2023-04-04T02:19:39.526Z,101321.56
2023-04-04T02:21:11.334Z,101316.31
2023-04-04T02:22:43.127Z,101319.06
2023-04-04T02:24:14.975Z,101313.81
2023-04-04T02:25:46.792Z,101312.16
2023-04-04T02:27:18.586Z,101315.72
2023-04-04T02:28:50.410Z,101309.63
2023-04-04T02:30:22.220Z,101312.31
2023-04-04T02:31:55.424Z,101309.69
2023-04-04T02:33:27.359Z,101312.38
2023-04-04T02:34:59.540Z,101306.28
2023-04-04T02:36:31.622Z,101308.13
2023-04-04T02:38:03.752Z,101309.91
2023-04-04T02:39:43.884Z,101310.84
2023-04-04T02:41:15.719Z,101310.88
2023-04-04T02:42:47.564Z,101311.81
2023-04-04T02:44:19.586Z,101302.19
2023-04-04T02:45:53.895Z,101304.88
2023-04-04T02:47:28.805Z,101307.53
2023-04-04T02:49:02.153Z,101309.34
2023-04-04T02:50:34.863Z,101306.78
2023-04-04T02:52:08.450Z,101304.19
2023-04-04T02:53:44.494Z,101300.66
2023-04-04T02:55:27.262Z,101306.88
2023-04-04T02:56:59.164Z,101303.41
2023-04-04T02:58:34.941Z,101305.25
2023-04-04T03:00:07.656Z,101300.00
2023-04-04T03:01:40.054Z,101306.22
2023-04-04T03:03:12.090Z,101295.69
2023-04-04T03:04:48.638Z,101301.06
2023-04-04T03:06:20.488Z,101298.47
2023-04-04T03:07:58.382Z,101301.22
2023-04-04T03:09:31.582Z,101300.38
2023-04-04T03:11:03.560Z,101303.06
2023-04-04T03:12:35.656Z,101303.09
2023-04-04T03:14:08.542Z,101308.44
2023-04-04T03:15:44.095Z,101307.63
2023-04-04T03:17:20.424Z,101303.25
2023-04-04T03:18:52.315Z,101305.03
2023-04-04T03:20:26.605Z,101305.06
2023-04-04T03:21:58.416Z,101305.13
2023-04-04T03:23:30.227Z,101309.53
2023-04-04T03:25:03.743Z,101311.31
2023-04-04T03:26:35.570Z,101306.91
2023-04-04T03:28:10.139Z,101311.34
2023-04-04T03:29:42.393Z,101305.16
2023-04-04T03:31:15.209Z,101310.44
2023-04-04T03:32:47.906Z,101309.59
2023-04-04T03:34:19.848Z,101302.50
2023-04-04T03:35:51.664Z,101309.53
2023-04-04T03:37:23.840Z,101307.75
2023-04-04T03:38:55.791Z,101306.88
2023-04-04T03:40:27.720Z,101307.75
2023-04-04T03:41:59.519Z,101302.47
2023-04-04T03:43:32.781Z,101301.56
2023-04-04T03:45:04.777Z,101302.41
2023-04-04T03:46:38.658Z,101308.53
2023-04-04T03:48:11.448Z,101299.72
2023-04-04T03:49:44.866Z,101306.75
2023-04-04T03:51:23.847Z,101297.03
2023-04-04T03:52:55.693Z,101297.00
2023-04-04T03:54:28.469Z,101308.44
2023-04-04T03:56:00.641Z,101293.41
2023-04-04T03:57:32.922Z,101292.47
2023-04-04T03:59:04.877Z,101291.56
2023-04-04T04:00:36.703Z,101288.00
2023-04-04T04:02:08.600Z,101293.28
2023-04-04T04:03:40.673Z,101299.41
2023-04-04T04:05:12.818Z,101294.06
2023-04-04T04:06:44.608Z,101292.28
2023-04-04T04:08:16.777Z,101290.47
2023-04-04T04:09:48.574Z,101288.66
2023-04-04T04:11:20.351Z,101292.16
2023-04-04T04:12:52.175Z,101295.63
2023-04-04T04:14:23.975Z,101297.41
2023-04-04T04:15:57.435Z,101295.59
2023-04-04T04:17:29.851Z,101296.44
2023-04-04T04:19:02.606Z,101303.47
2023-04-04T04:20:42.797Z,101293.69
2023-04-04T04:22:14.844Z,101297.25
2023-04-04T04:23:48.635Z,101294.56
2023-04-04T04:25:20.637Z,101298.06
2023-04-04T04:27:08.302Z,101297.16
2023-04-04T04:28:41.044Z,101299.81
2023-04-04T04:30:17.606Z,101293.59
2023-04-04T04:31:52.632Z,101299.75
2023-04-04T04:33:31.979Z,101295.38
2023-04-04T04:35:08.952Z,101300.59
2023-04-04T04:36:42.892Z,101299.72
2023-04-04T04:38:28.911Z,101297.97
2023-04-04T04:40:02.092Z,101298.81
2023-04-04T04:42:03.488Z,101305.84
2023-04-04T04:43:37.161Z,101293.50
2023-04-04T04:45:09.458Z,101298.81
2023-04-04T04:46:43.418Z,101302.34
2023-04-04T04:48:19.573Z,101301.47
2023-04-04T04:49:55.749Z,101294.41
2023-04-04T04:51:39.024Z,101304.06
2023-04-04T04:53:11.668Z,101288.25
2023-04-04T04:54:44.023Z,101310.25
2023-04-04T04:56:15.868Z,101303.22
2023-04-04T04:57:49.589Z,101292.63
2023-04-04T04:59:26.537Z,101311.16
2023-04-04T05:01:01.769Z,101299.66
2023-04-04T05:02:41.177Z,101298.78
2023-04-04T05:04:13.571Z,101298.78
2023-04-04T05:05:53.623Z,101310.19
2023-04-04T05:07:25.496Z,101310.19
2023-04-04T05:08:58.766Z,101311.06
2023-04-04T05:10:39.385Z,101309.31
2023-04-04T05:12:12.933Z,101314.53
2023-04-04T05:13:49.294Z,101313.63
2023-04-04T05:15:22.640Z,101319.75
2023-04-04T05:16:56.868Z,101318.84
2023-04-04T05:18:33.393Z,101322.34
2023-04-04T05:20:06.196Z,101315.25
2023-04-04T05:21:38.296Z,101316.94
2023-04-04T05:23:13.300Z,101316.00
2023-04-04T05:24:47.170Z,101319.47
2023-04-04T05:26:21.634Z,101315.00
2023-04-04T05:27:57.858Z,101321.09
2023-04-04T05:29:29.869Z,101318.38
2023-04-04T05:31:02.445Z,101325.41
2023-04-04T05:32:36.687Z,101324.44
2023-04-04T05:34:14.430Z,101326.97
2023-04-04T05:35:46.924Z,101333.06
2023-04-04T05:37:20.133Z,101326.78
2023-04-04T05:38:54.288Z,101332.88
2023-04-04T05:40:29.495Z,101326.59
2023-04-04T05:42:10.834Z,101331.78
2023-04-04T05:43:48.204Z,101334.38
2023-04-04T05:45:23.485Z,101336.91
2023-04-04T05:46:55.323Z,101340.34
2023-04-04T05:48:27.129Z,101338.47
2023-04-04T05:49:59.236Z,101336.59
2023-04-04T05:51:31.140Z,101346.22
2023-04-04T05:53:12.231Z,101345.22
2023-04-04T05:54:51.550Z,101341.63
2023-04-04T05:56:31.116Z,101344.16
2023-04-04T05:58:04.355Z,101343.19
2023-04-04T05:59:47.977Z,101346.63
2023-04-04T06:01:21.365Z,101344.81
2023-04-04T06:02:58.758Z,101340.31
2023-04-04T06:04:30.868Z,101348.22
2023-04-04T06:06:05.657Z,101345.53
2023-04-04T06:07:38.801Z,101341.97
2023-04-04T06:09:10.631Z,101342.84
2023-04-04T06:10:42.510Z,101338.47
2023-04-04T06:12:14.327Z,101349.88
2023-04-04T06:13:46.690Z,101343.72
2023-04-04T06:15:21.662Z,101344.56
2023-04-04T06:16:53.455Z,101337.50
2023-04-04T06:18:25.297Z,101349.00
2023-04-04T06:19:57.223Z,101342.81
2023-04-04T06:21:29.019Z,101339.28
2023-04-04T06:23:04.713Z,101345.47
2023-04-04T06:24:38.633Z,101347.22
2023-04-04T06:26:10.933Z,101345.47
2023-04-04T06:27:44.925Z,101349.00
2023-04-04T06:29:16.906Z,101340.06
2023-04-04T06:30:49.689Z,101338.31
2023-04-04T06:32:32.178Z,101337.34
2023-04-04T06:34:04.088Z,101333.81
2023-04-04T06:35:40.613Z,101341.69
2023-04-04T06:37:13.148Z,101337.19
2023-04-04T06:38:53.348Z,101334.53
2023-04-04T06:40:27.212Z,101337.97
2023-04-04T06:41:59.548Z,101327.28
2023-04-04T06:43:34.577Z,101337.03
2023-04-04T06:45:06.950Z,101331.72
2023-04-04T06:46:39.394Z,101334.34
2023-04-04T06:48:11.265Z,101331.66
2023-04-04T06:49:43.381Z,101334.25
2023-04-04T06:51:16.248Z,101334.25
2023-04-04T06:52:50.446Z,101332.38
2023-04-04T06:54:22.340Z,101333.19
2023-04-04T06:55:54.322Z,101333.19
2023-04-04T06:57:27.211Z,101334.97
2023-04-04T06:58:59.087Z,101337.53
2023-04-04T07:00:30.993Z,101322.44
2023-04-04T07:02:02.804Z,101331.25
2023-04-04T07:03:34.802Z,101324.09
2023-04-04T07:05:07.246Z,101329.34
2023-04-04T07:06:39.062Z,101322.19
2023-04-04T07:08:11.788Z,101328.38
2023-04-04T07:09:43.800Z,101323.88
2023-04-04T07:11:15.744Z,101324.75
2023-04-04T07:12:47.575Z,101322.88
2023-04-04T07:14:20.950Z,101320.16
2023-04-04T07:15:52.913Z,101331.59
2023-04-04T07:17:25.645Z,101317.34
2023-04-04T07:18:57.598Z,101325.22
2023-04-04T07:20:29.439Z,101310.16
2023-04-04T07:22:01.221Z,101317.97
2023-04-04T07:23:33.015Z,101321.47
2023-04-04T07:25:05.086Z,101324.91
2023-04-04T07:26:36.993Z,101318.66
2023-04-04T07:28:12.912Z,101323.84
2023-04-04T07:29:45.388Z,101325.47
2023-04-04T07:31:17.338Z,101326.31
2023-04-04T07:32:57.696Z,101321.88
2023-04-04T07:34:30.109Z,101320.94
2023-04-04T07:36:03.447Z,101318.25
2023-04-04T07:37:38.480Z,101323.50
2023-04-04T07:39:10.397Z,101319.91
2023-04-04T07:40:42.588Z,101323.34
2023-04-04T07:42:15.120Z,101324.13
2023-04-04T07:43:47.418Z,101314.19
2023-04-04T07:45:19.342Z,101315.03
2023-04-04T07:47:02.440Z,101317.53
2023-04-04T07:48:40.900Z,101318.22
2023-04-04T07:50:13.529Z,101327.84
2023-04-04T07:51:45.665Z,101319.69
2023-04-04T07:53:17.507Z,101316.16
2023-04-04T07:54:49.544Z,101308.94
2023-04-04T07:56:22.036Z,101314.00
2023-04-04T07:57:53.848Z,101308.44
2023-04-04T07:59:25.815Z,101319.78
2023-04-04T08:00:57.785Z,101316.81
2023-04-04T08:02:29.706Z,101317.41
2023-04-04T08:04:01.753Z,101317.06
2023-04-04T08:05:34.042Z,101318.50
2023-04-04T08:07:05.826Z,101305.66
2023-04-04T08:08:37.696Z,101308.84
2023-04-04T08:10:09.996Z,101307.63
2023-04-04T08:11:41.779Z,101309.97
2023-04-04T08:13:13.656Z,101301.63
2023-04-04T08:14:45.457Z,101311.88
2023-04-04T08:16:17.859Z,101307.09
2023-04-04T08:17:50.383Z,101303.28
2023-04-04T08:19:23.002Z,101301.16
2023-04-04T08:20:54.782Z,101298.09
2023-04-04T08:22:27.289Z,101306.63
2023-04-04T08:23:59.073Z,101307.16
2023-04-04T08:25:30.856Z,101297.00
2023-04-04T08:27:05.573Z,101299.25
2023-04-04T08:28:38.647Z,101298.91
2023-04-04T08:30:11.186Z,101295.88
2023-04-04T08:31:43.472Z,101303.56
2023-04-04T08:33:15.304Z,101293.59
2023-04-04T08:34:47.337Z,101290.56
2023-04-04T08:36:19.952Z,101298.13
2023-04-04T08:37:52.251Z,101296.94
2023-04-04T08:39:24.079Z,101290.16
2023-04-04T08:40:55.899Z,101289.53
2023-04-04T08:42:30.362Z,101286.09
2023-04-04T08:44:04.497Z,101287.84
2023-04-04T08:45:36.657Z,101285.19
2023-04-04T08:47:10.962Z,101286.09
2023-04-04T08:48:44.947Z,101284.16
2023-04-04T08:50:17.969Z,101288.63
2023-04-04T08:53:49.508Z,101293.00
2023-04-04T08:55:21.609Z,101277.16
2023-04-04T08:56:53.497Z,101280.84
2023-04-04T08:58:25.384Z,101289.88
2023-04-04T08:59:57.936Z,101291.09
2023-04-04T09:01:29.984Z,101274.28
2023-04-04T09:03:20.320Z,101279.78
2023-04-04T09:05:05.653Z,101274.47
2023-04-04T09:06:39.318Z,101275.31
2023-04-04T09:08:12.641Z,101287.66
2023-04-04T09:09:47.980Z,101283.25
2023-04-04T09:11:21.686Z,101285.00
2023-04-04T09:12:57.313Z,101281.47
2023-04-04T09:14:37.530Z,101279.81
2023-04-04T09:16:09.453Z,101277.38
2023-04-04T09:17:41.833Z,101270.44
2023-04-04T09:19:13.661Z,101269.03
2023-04-04T09:20:46.907Z,101267.81
2023-04-04T09:22:19.610Z,101267.34
2023-04-04T09:24:01.385Z,101264.97
2023-04-04T09:25:33.331Z,101272.78
2023-04-04T09:27:05.106Z,101273.63
2023-04-04T09:28:37.015Z,101263.84
2023-04-04T09:30:09.666Z,101263.56
2023-04-04T09:31:46.878Z,101263.75
2023-04-04T09:33:21.908Z,101269.22
2023-04-04T09:34:54.748Z,101274.84
2023-04-04T09:36:27.302Z,101262.63
2023-04-04T09:37:59.650Z,101262.59
2023-04-04T09:39:32.792Z,101269.19
2023-04-04T09:41:09.963Z,101275.91
2023-04-04T09:42:42.431Z,101272.81
2023-04-04T09:44:14.297Z,101267.84
2023-04-04T09:45:47.642Z,101263.50
2023-04-04T09:49:01.505Z,101284.84
2023-04-04T09:50:33.905Z,101274.09
2023-04-04T09:52:06.197Z,101274.97
2023-04-04T09:53:39.911Z,101275.06
2023-04-04T09:55:11.695Z,101280.53
2023-04-04T09:56:45.096Z,101282.31
2023-04-04T09:58:18.753Z,101273.41
2023-04-04T09:59:50.839Z,101270.81
2023-04-04T10:01:24.042Z,101276.38
2023-04-04T10:02:58.521Z,101271.56
2023-04-04T10:04:32.481Z,101266.91
2023-04-04T10:06:07.366Z,101259.38
2023-04-04T10:07:40.665Z,101271.47
2023-04-04T10:09:12.730Z,101271.31
2023-04-04T10:11:09.475Z,101269.56
2023-04-04T10:12:46.359Z,101267.03
2023-04-04T10:14:18.528Z,101263.78
2023-04-04T10:15:51.624Z,101283.72
2023-04-04T10:17:25.485Z,101270.72
2023-04-04T10:18:58.779Z,101269.28
2023-04-04T10:20:32.236Z,101279.22
2023-04-04T10:22:05.867Z,101265.78
2023-04-04T10:23:38.793Z,101268.47
2023-04-04T10:25:10.880Z,101270.13
2023-04-04T10:26:42.719Z,101266.31
2023-04-04T10:28:14.595Z,101266.81
2023-04-04T10:29:46.817Z,101255.34
2023-04-04T10:31:26.209Z,101259.13
2023-04-04T10:33:06.952Z,101252.94
2023-04-04T10:34:54.089Z,101247.09
2023-04-04T10:36:38.641Z,101260.09
2023-04-04T10:38:11.152Z,101267.22
2023-04-04T10:39:56.457Z,101259.94
2023-04-04T10:41:31.780Z,101253.50
2023-04-04T10:43:05.530Z,101260.44
2023-04-04T10:44:40.585Z,101262.91
2023-04-04T10:46:16.258Z,101253.47
2023-04-04T10:47:48.756Z,101249.16
2023-04-04T10:49:22.692Z,101254.41
2023-04-04T10:50:56.357Z,101247.72
2023-04-04T10:52:29.962Z,101242.84
2023-04-04T10:54:02.406Z,101245.78
2023-04-04T10:55:35.675Z,101241.19
2023-04-04T10:57:07.793Z,101237.63
2023-04-04T10:58:41.992Z,101236.19
2023-04-04T11:00:23.642Z,101233.41
2023-04-04T11:02:00.453Z,101237.88
2023-04-04T11:03:34.231Z,101228.53
2023-04-04T11:05:26.893Z,101227.63
2023-04-04T11:07:16.467Z,101234.72
2023-04-04T11:08:56.319Z,101233.19
2023-04-04T11:10:29.920Z,101226.69
2023-04-04T11:12:08.766Z,101232.72
2023-04-04T11:13:41.740Z,101232.19
2023-04-04T11:15:14.832Z,101228.88
2023-04-04T11:16:47.158Z,101225.47
2023-04-04T11:18:33.358Z,101224.47
2023-04-04T11:20:08.752Z,101224.31
2023-04-04T11:21:40.710Z,101212.16
2023-04-04T11:23:22.921Z,101214.28
2023-04-04T11:25:01.305Z,101220.63
2023-04-04T11:26:33.069Z,101218.31
2023-04-04T11:28:25.743Z,101222.47
2023-04-04T11:29:58.994Z,101219.00
2023-04-04T11:31:41.006Z,101212.59
2023-04-04T11:33:13.484Z,101215.97
2023-04-04T11:34:45.600Z,101213.38
2023-04-04T11:36:41.641Z,101210.66
2023-04-04T11:38:16.256Z,101204.59
2023-04-04T11:39:56.872Z,101203.44
2023-04-04T11:41:45.255Z,101192.38
2023-04-04T11:43:20.490Z,101206.03
2023-04-04T11:44:52.256Z,101190.81
2023-04-04T11:46:29.914Z,101188.06
2023-04-04T11:48:05.154Z,101187.88
2023-04-04T11:49:39.824Z,101194.97
2023-04-04T11:51:12.023Z,101185.19
2023-04-04T11:52:43.848Z,101181.50
2023-04-04T11:54:18.581Z,101181.31
2023-04-04T11:55:51.448Z,101175.75
2023-04-04T11:57:23.496Z,101188.16
2023-04-04T11:59:08.791Z,101196.03
2023-04-04T12:00:44.314Z,101186.34
2023-04-04T12:02:20.554Z,101191.91
2023-04-04T12:03:52.823Z,101182.31
2023-04-04T12:05:25.139Z,101174.31
2023-04-04T12:06:57.152Z,101181.25
2023-04-04T12:08:28.995Z,101175.88
2023-04-04T12:10:01.509Z,101171.03
2023-04-04T12:11:37.403Z,101181.44
2023-04-04T12:13:10.171Z,101175.00
2023-04-04T12:14:42.605Z,101174.22
2023-04-04T12:16:14.508Z,101174.31
2023-04-04T12:17:48.713Z,101170.00
2023-04-04T12:19:22.800Z,101149.53
2023-04-04T12:20:56.959Z,101168.47
2023-04-04T12:22:35.148Z,101165.41
2023-04-04T12:24:09.106Z,101159.31
2023-04-04T12:25:44.415Z,101155.88
2023-04-04T12:27:16.450Z,101162.13
2023-04-04T12:28:49.236Z,101158.66
2023-04-04T12:30:21.882Z,101159.03
2023-04-04T12:31:55.653Z,101155.97
2023-04-04T12:33:28.219Z,101165.38
2023-04-04T12:35:01.539Z,101165.94
2023-04-04T12:36:35.514Z,101163.22
2023-04-04T12:38:08.564Z,101157.81
2023-04-04T12:39:46.511Z,101163.22
2023-04-04T12:41:19.823Z,101158.84
2023-04-04T12:42:52.124Z,101153.13
2023-04-04T12:44:36.266Z,101152.22
2023-04-04T12:46:08.542Z,101139.72
2023-04-04T12:47:52.174Z,101145.38
2023-04-04T12:49:24.256Z,101143.25
2023-04-04T12:50:58.203Z,101137.81
2023-04-04T12:52:32.675Z,101138.56
2023-04-04T12:54:06.842Z,101136.59
2023-04-04T12:55:38.875Z,101129.22
2023-04-04T12:57:12.759Z,101136.94
2023-04-04T12:58:48.514Z,101134.59
2023-04-04T13:00:21.832Z,101134.31
2023-04-04T13:01:53.943Z,101134.91
2023-04-04T13:03:27.773Z,101133.94
2023-04-04T13:05:00.290Z,101136.72
2023-04-04T13:06:33.401Z,101136.81
2023-04-04T13:08:07.421Z,101136.16
2023-04-04T13:09:52.744Z,101141.94
2023-04-04T13:11:25.087Z,101133.81
2023-04-04T13:13:02.583Z,101134.00
2023-04-04T13:15:00.260Z,101135.97
2023-04-04T13:16:37.370Z,101126.91
2023-04-04T13:18:18.293Z,101139.38
2023-04-04T13:19:50.673Z,101132.00
2023-04-04T13:21:23.184Z,101132.94
2023-04-04T13:22:58.528Z,101132.16
2023-04-04T13:24:30.536Z,101128.81
2023-04-04T13:26:04.364Z,101118.31
2023-04-04T13:27:36.910Z,101113.97
2023-04-04T13:29:08.689Z,101106.97
2023-04-04T13:30:49.918Z,101108.78
2023-04-04T13:32:22.405Z,101108.69
2023-04-04T13:33:54.214Z,101119.34
2023-04-04T13:35:27.220Z,101120.03
2023-04-04T13:36:59.060Z,101113.53
2023-04-04T13:38:30.917Z,101105.97
2023-04-04T13:40:02.711Z,101111.69
2023-04-04T13:41:34.518Z,101104.03
2023-04-04T13:43:06.779Z,101088.97
2023-04-04T13:44:38.562Z,101093.53
2023-04-04T13:46:10.533Z,101093.53
2023-04-04T13:47:42.379Z,101098.03
2023-04-04T13:49:14.400Z,101095.34
2023-04-04T13:50:51.491Z,101095.53
2023-04-04T13:52:23.952Z,101092.91
2023-04-04T13:53:55.957Z,101087.84
2023-04-04T13:55:28.121Z,101086.56
2023-04-04T13:56:59.915Z,101080.78
2023-04-04T13:58:31.694Z,101086.72
2023-04-04T14:00:05.753Z,101083.63
2023-04-04T14:01:41.531Z,101089.03
2023-04-04T14:03:13.440Z,101089.22
2023-04-04T14:04:45.339Z,101092.31
2023-04-04T14:06:17.218Z,101086.56
2023-04-04T14:07:49.167Z,101090.53
2023-04-04T14:09:21.050Z,101086.47
2023-04-04T14:10:52.850Z,101084.19
2023-04-04T14:12:24.624Z,101085.22
2023-04-04T14:13:56.721Z,101085.22
2023-04-04T14:15:29.158Z,101080.44
2023-04-04T14:17:01.144Z,101072.72
2023-04-04T14:18:34.638Z,101072.16
2023-04-04T14:20:08.060Z,101071.63
2023-04-04T14:21:39.920Z,101064.91
2023-04-04T14:23:11.689Z,101063.41
2023-04-04T14:24:43.453Z,101061.94
2023-04-04T14:26:16.150Z,101063.91
2023-04-04T14:27:48.059Z,101064.06
2023-04-04T14:29:19.867Z,101064.28
2023-04-04T14:30:51.889Z,101073.88
2023-04-04T14:32:23.864Z,101072.91
2023-04-04T14:33:55.661Z,101062.25
2023-04-04T14:35:27.417Z,101068.16
2023-04-04T14:36:59.814Z,101062.63
2023-04-04T14:38:32.102Z,101060.34
2023-04-04T14:40:05.567Z,101055.69
2023-04-04T14:41:37.354Z,101053.09
2023-04-04T14:43:09.751Z,101065.56
2023-04-04T14:44:42.424Z,101060.78
2023-04-04T14:46:14.229Z,101068.28
2023-04-04T14:47:46.210Z,101061.78
2023-04-04T14:49:18.161Z,101058.78
2023-04-04T14:50:49.959Z,101061.97
2023-04-04T14:52:21.827Z,101058.50
2023-04-04T14:53:53.821Z,101064.09
2023-04-04T14:55:25.684Z,101060.53
2023-04-04T14:56:58.173Z,101055.81
2023-04-04T14:58:29.979Z,101056.09
2023-04-04T15:00:01.781Z,101056.38
2023-04-04T15:01:33.695Z,101051.72
2023-04-04T15:03:07.347Z,101048.44
2023-04-04T15:04:39.645Z,101048.34
2023-04-04T15:06:11.647Z,101054.34
2023-04-04T15:07:46.459Z,101051.16
2023-04-04T15:09:18.252Z,101053.84
2023-04-04T15:10:50.044Z,101046.34
2023-04-04T15:12:21.857Z,101042.31
2023-04-04T15:13:53.693Z,101052.47
2023-04-04T15:15:26.777Z,101045.59
2023-04-04T15:16:58.655Z,101041.50
2023-04-04T15:18:30.594Z,101046.81
2023-04-04T15:20:02.541Z,101045.06
2023-04-04T15:21:34.323Z,101048.31
2023-04-04T15:23:06.610Z,101042.88
2023-04-04T15:24:38.660Z,101047.97
2023-04-04T15:26:10.877Z,101038.66
2023-04-04T15:27:42.681Z,101039.75
2023-04-04T15:29:15.828Z,101045.69
2023-04-04T15:30:47.626Z,101042.56
2023-04-04T15:32:19.426Z,101036.63
2023-04-04T15:33:51.228Z,101035.16
2023-04-04T15:35:23.392Z,101030.94
2023-04-04T15:36:57.994Z,101030.06
2023-04-04T15:38:29.890Z,101022.81
2023-04-04T15:40:01.671Z,101022.66
2023-04-04T15:41:33.620Z,101023.59
2023-04-04T15:43:06.059Z,101021.84
2023-04-04T15:44:37.870Z,101025.88
2023-04-04T15:46:09.672Z,101024.09
2023-04-04T15:47:42.626Z,101020.63
2023-04-04T15:49:15.241Z,101020.44
2023-04-04T15:50:47.028Z,101014.34
2023-04-04T15:52:18.821Z,101013.50
2023-04-04T15:53:54.409Z,101020.78
2023-04-04T15:55:27.345Z,101017.38
2023-04-04T15:56:59.157Z,101020.69
2023-04-04T15:58:31.144Z,101007.16
2023-04-04T16:00:03.694Z,101012.47
2023-04-04T16:01:40.979Z,101024.47
2023-04-04T16:03:14.583Z,101019.44
2023-04-04T16:04:46.465Z,101016.59
2023-04-04T16:06:18.287Z,101022.31
2023-04-04T16:07:50.084Z,101022.00
2023-04-04T16:09:21.964Z,101018.41
2023-04-04T16:10:53.794Z,101019.47
2023-04-04T16:12:26.201Z,101028.53
2023-04-04T16:13:58.206Z,101020.25
2023-04-04T16:15:30.179Z,101021.56
2023-04-04T16:17:05.492Z,101021.84
2023-04-04T16:18:37.502Z,101029.28
2023-04-04T16:20:09.869Z,101016.22
2023-04-04T16:21:42.120Z,101012.28
2023-04-04T16:23:14.481Z,101011.72
2023-04-04T16:24:46.424Z,101013.69
2023-04-04T16:26:18.248Z,101021.03
2023-04-04T16:27:50.008Z,101015.88
2023-04-04T16:29:21.887Z,101019.38
2023-04-04T16:30:53.824Z,101021.97
2023-04-04T16:32:25.758Z,101015.53
2023-04-04T16:33:58.833Z,101007.31
2023-04-04T16:35:32.784Z,101013.34
2023-04-04T16:37:04.602Z,101011.31
2023-04-04T16:38:36.425Z,101012.00
2023-04-04T16:40:08.813Z,101022.53
2023-04-04T16:41:41.164Z,101013.44
2023-04-04T16:43:13.024Z,101011.78
2023-04-04T16:44:47.058Z,101021.53
2023-04-04T16:46:19.482Z,101011.69
2023-04-04T16:47:51.822Z,101021.41
2023-04-04T16:49:23.753Z,101017.88
2023-04-04T16:50:56.547Z,101019.72
2023-04-04T16:52:28.419Z,101018.69
2023-04-04T16:54:00.263Z,101026.59
2023-04-04T16:55:32.063Z,101022.88
2023-04-04T16:57:03.908Z,101019.09
2023-04-04T16:58:35.934Z,101022.53
2023-04-04T17:00:10.173Z,101016.97
2023-04-04T17:01:42.024Z,101017.63
2023-04-04T17:03:13.903Z,101017.31
2023-04-04T17:04:45.855Z,101017.00
2023-04-04T17:06:17.910Z,101019.28
2023-04-04T17:07:49.743Z,101014.50
2023-04-04T17:09:21.927Z,101010.47
2023-04-04T17:10:54.003Z,101009.19
2023-04-04T17:12:25.808Z,101014.09
2023-04-04T17:13:58.240Z,101009.09
2023-04-04T17:15:30.349Z,101008.63
2023-04-04T17:17:02.257Z,101013.47
2023-04-04T17:18:34.496Z,101009.38
2023-04-04T17:20:06.903Z,101016.81
2023-04-04T17:21:38.761Z,101011.72
2023-04-04T17:23:11.132Z,101015.66
2023-04-04T17:24:43.128Z,101020.41
2023-04-04T17:26:14.940Z,101015.38
2023-04-04T17:27:46.892Z,101022.75
2023-04-04T17:29:20.874Z,101014.94
2023-04-04T17:30:52.929Z,101021.41
2023-04-04T17:32:24.722Z,101022.59
2023-04-04T17:33:56.578Z,101023.66
2023-04-04T17:35:28.448Z,101015.84
2023-04-04T17:37:00.298Z,101025.88
2023-04-04T17:38:32.141Z,101019.81
2023-04-04T17:40:05.544Z,101024.50
2023-04-04T17:41:37.871Z,101020.25
2023-04-04T17:43:09.700Z,101023.97
2023-04-04T17:44:41.536Z,101016.19
2023-04-04T17:46:13.473Z,101026.06
2023-04-04T17:47:46.375Z,101023.50
2023-04-04T17:49:20.361Z,101022.78
2023-04-04T17:50:53.243Z,101017.66
2023-04-04T17:52:25.073Z,101017.84
2023-04-04T17:53:56.882Z,101020.66